sensor_id;sensor_type;location;lat;lon;timestamp;P1;durP1;ratioP1;P2;durP2;ratioP2
71435;SDS011;59251;51.326;12.370;2023-05-07T00:00:28;17.38;;;8.32;;
71435;SDS011;59251;51.326;12.370;2023-05-07T00:02:54;19.27;;;8.10;;
71435;SDS011;59251;51.326;12.370;2023-05-07T00:05:20;16.33;;;7.73;;
71435;SDS011;59251;51.326;12.370;2023-05-07T00:07:46;18.00;;;7.65;;
71435;SDS011;59251;51.326;12.370;2023-05-07T00:10:11;15.60;;;7.20;;
71435;SDS011;59251;51.326;12.370;2023-05-07T00:12:37;16.42;;;8.45;;
71435;SDS011;59251;51.326;12.370;2023-05-07T00:15:03;16.02;;;6.95;;
71435;SDS011;59251;51.326;12.370;2023-05-07T00:17:29;15.70;;;8.15;;
71435;SDS011;59251;51.326;12.370;2023-05-07T00:19:55;16.05;;;7.60;;
71435;SDS011;59251;51.326;12.370;2023-05-07T00:22:20;16.80;;;6.80;;
71435;SDS011;59251;51.326;12.370;2023-05-07T00:24:46;17.10;;;7.45;;
71435;SDS011;59251;51.326;12.370;2023-05-07T00:27:11;15.10;;;7.00;;
71435;SDS011;59251;51.326;12.370;2023-05-07T00:29:37;14.90;;;6.90;;
71435;SDS011;59251;51.326;12.370;2023-05-07T00:32:02;13.57;;;6.80;;
71435;SDS011;59251;51.326;12.370;2023-05-07T00:34:28;14.30;;;6.78;;
71435;SDS011;59251;51.326;12.370;2023-05-07T00:36:53;12.88;;;5.93;;
71435;SDS011;59251;51.326;12.370;2023-05-07T00:39:18;12.23;;;6.60;;
71435;SDS011;59251;51.326;12.370;2023-05-07T00:41:44;14.67;;;6.33;;
71435;SDS011;59251;51.326;12.370;2023-05-07T00:44:09;13.13;;;6.27;;
71435;SDS011;59251;51.326;12.370;2023-05-07T00:46:35;13.18;;;6.13;;
71435;SDS011;59251;51.326;12.370;2023-05-07T00:49:00;12.90;;;5.77;;
71435;SDS011;59251;51.326;12.370;2023-05-07T00:51:26;14.50;;;7.53;;
71435;SDS011;59251;51.326;12.370;2023-05-07T00:53:52;13.70;;;6.63;;
71435;SDS011;59251;51.326;12.370;2023-05-07T00:56:18;13.98;;;7.30;;
71435;SDS011;59251;51.326;12.370;2023-05-07T00:58:46;13.57;;;7.15;;
71435;SDS011;59251;51.326;12.370;2023-05-07T01:01:12;14.40;;;7.53;;
71435;SDS011;59251;51.326;12.370;2023-05-07T01:03:37;15.70;;;8.00;;
71435;SDS011;59251;51.326;12.370;2023-05-07T01:06:03;16.65;;;7.30;;
71435;SDS011;59251;51.326;12.370;2023-05-07T01:08:30;16.63;;;8.48;;
71435;SDS011;59251;51.326;12.370;2023-05-07T01:10:56;17.73;;;8.40;;
71435;SDS011;59251;51.326;12.370;2023-05-07T01:13:22;17.60;;;8.93;;
71435;SDS011;59251;51.326;12.370;2023-05-07T01:15:49;18.08;;;9.07;;
71435;SDS011;59251;51.326;12.370;2023-05-07T01:18:14;16.50;;;8.57;;
71435;SDS011;59251;51.326;12.370;2023-05-07T01:20:40;17.53;;;9.13;;
71435;SDS011;59251;51.326;12.370;2023-05-07T01:23:06;19.58;;;8.70;;
71435;SDS011;59251;51.326;12.370;2023-05-07T01:25:32;18.20;;;9.23;;
71435;SDS011;59251;51.326;12.370;2023-05-07T01:27:57;19.93;;;11.17;;
71435;SDS011;59251;51.326;12.370;2023-05-07T01:30:24;19.05;;;9.07;;
71435;SDS011;59251;51.326;12.370;2023-05-07T01:32:52;17.95;;;8.85;;
71435;SDS011;59251;51.326;12.370;2023-05-07T01:35:27;16.88;;;8.45;;
71435;SDS011;59251;51.326;12.370;2023-05-07T01:37:55;19.07;;;9.87;;
71435;SDS011;59251;51.326;12.370;2023-05-07T01:40:21;17.38;;;8.32;;
71435;SDS011;59251;51.326;12.370;2023-05-07T01:42:47;19.80;;;9.52;;
71435;SDS011;59251;51.326;12.370;2023-05-07T01:45:13;20.80;;;9.33;;
71435;SDS011;59251;51.326;12.370;2023-05-07T01:47:39;17.23;;;8.50;;
71435;SDS011;59251;51.326;12.370;2023-05-07T01:50:05;20.38;;;9.32;;
71435;SDS011;59251;51.326;12.370;2023-05-07T01:52:31;19.67;;;9.95;;
71435;SDS011;59251;51.326;12.370;2023-05-07T01:54:56;22.33;;;10.63;;
71435;SDS011;59251;51.326;12.370;2023-05-07T01:57:22;21.85;;;11.77;;
71435;SDS011;59251;51.326;12.370;2023-05-07T01:59:47;22.17;;;10.97;;
71435;SDS011;59251;51.326;12.370;2023-05-07T02:02:12;20.57;;;10.13;;
71435;SDS011;59251;51.326;12.370;2023-05-07T02:04:38;20.53;;;11.07;;
71435;SDS011;59251;51.326;12.370;2023-05-07T02:07:03;20.87;;;11.03;;
71435;SDS011;59251;51.326;12.370;2023-05-07T02:09:29;22.67;;;10.90;;
71435;SDS011;59251;51.326;12.370;2023-05-07T02:11:54;23.65;;;12.38;;
71435;SDS011;59251;51.326;12.370;2023-05-07T02:14:19;23.23;;;11.57;;
71435;SDS011;59251;51.326;12.370;2023-05-07T02:16:45;23.43;;;11.50;;
71435;SDS011;59251;51.326;12.370;2023-05-07T02:19:11;21.55;;;10.98;;
71435;SDS011;59251;51.326;12.370;2023-05-07T02:21:36;22.67;;;11.73;;
71435;SDS011;59251;51.326;12.370;2023-05-07T02:24:01;24.23;;;11.77;;
71435;SDS011;59251;51.326;12.370;2023-05-07T02:26:27;23.83;;;12.23;;
71435;SDS011;59251;51.326;12.370;2023-05-07T02:28:52;23.93;;;12.30;;
71435;SDS011;59251;51.326;12.370;2023-05-07T02:31:18;23.85;;;12.07;;
71435;SDS011;59251;51.326;12.370;2023-05-07T02:33:44;24.40;;;12.10;;
71435;SDS011;59251;51.326;12.370;2023-05-07T02:36:10;21.52;;;11.27;;
71435;SDS011;59251;51.326;12.370;2023-05-07T02:38:37;22.20;;;11.00;;
71435;SDS011;59251;51.326;12.370;2023-05-07T02:41:02;20.37;;;10.70;;
71435;SDS011;59251;51.326;12.370;2023-05-07T02:43:27;20.73;;;10.70;;
71435;SDS011;59251;51.326;12.370;2023-05-07T02:46:03;23.13;;;10.80;;
71435;SDS011;59251;51.326;12.370;2023-05-07T02:48:33;22.00;;;11.65;;
71435;SDS011;59251;51.326;12.370;2023-05-07T02:50:58;20.50;;;10.85;;
71435;SDS011;59251;51.326;12.370;2023-05-07T02:53:24;19.93;;;10.80;;
71435;SDS011;59251;51.326;12.370;2023-05-07T02:55:54;22.45;;;10.75;;
71435;SDS011;59251;51.326;12.370;2023-05-07T02:58:24;19.98;;;11.65;;
71435;SDS011;59251;51.326;12.370;2023-05-07T03:00:49;22.92;;;12.25;;
71435;SDS011;59251;51.326;12.370;2023-05-07T03:03:15;23.80;;;11.57;;
71435;SDS011;59251;51.326;12.370;2023-05-07T03:05:40;22.37;;;12.40;;
71435;SDS011;59251;51.326;12.370;2023-05-07T03:08:06;21.85;;;11.05;;
71435;SDS011;59251;51.326;12.370;2023-05-07T03:10:32;22.20;;;11.27;;
71435;SDS011;59251;51.326;12.370;2023-05-07T03:12:58;22.05;;;12.05;;
71435;SDS011;59251;51.326;12.370;2023-05-07T03:15:23;21.27;;;11.47;;
71435;SDS011;59251;51.326;12.370;2023-05-07T03:17:49;23.37;;;11.50;;
71435;SDS011;59251;51.326;12.370;2023-05-07T03:20:14;21.93;;;11.73;;
71435;SDS011;59251;51.326;12.370;2023-05-07T03:22:39;21.77;;;11.07;;
71435;SDS011;59251;51.326;12.370;2023-05-07T03:25:05;21.42;;;11.95;;
71435;SDS011;59251;51.326;12.370;2023-05-07T03:27:31;20.50;;;11.37;;
71435;SDS011;59251;51.326;12.370;2023-05-07T03:29:56;21.10;;;11.35;;
71435;SDS011;59251;51.326;12.370;2023-05-07T03:32:22;20.07;;;11.10;;
71435;SDS011;59251;51.326;12.370;2023-05-07T03:34:47;20.40;;;11.07;;
71435;SDS011;59251;51.326;12.370;2023-05-07T03:37:12;21.03;;;11.83;;
71435;SDS011;59251;51.326;12.370;2023-05-07T03:39:38;24.20;;;13.93;;
71435;SDS011;59251;51.326;12.370;2023-05-07T03:42:03;24.73;;;12.90;;
71435;SDS011;59251;51.326;12.370;2023-05-07T03:44:28;22.67;;;12.17;;
71435;SDS011;59251;51.326;12.370;2023-05-07T03:46:54;22.27;;;11.73;;
71435;SDS011;59251;51.326;12.370;2023-05-07T03:49:20;18.92;;;10.50;;
71435;SDS011;59251;51.326;12.370;2023-05-07T03:51:45;20.92;;;10.75;;
71435;SDS011;59251;51.326;12.370;2023-05-07T03:54:11;21.57;;;10.83;;
71435;SDS011;59251;51.326;12.370;2023-05-07T03:56:36;21.57;;;10.50;;
71435;SDS011;59251;51.326;12.370;2023-05-07T03:59:02;19.70;;;10.60;;
71435;SDS011;59251;51.326;12.370;2023-05-07T04:01:27;20.20;;;10.37;;
71435;SDS011;59251;51.326;12.370;2023-05-07T04:03:52;20.80;;;10.85;;
71435;SDS011;59251;51.326;12.370;2023-05-07T04:06:18;18.98;;;10.05;;
71435;SDS011;59251;51.326;12.370;2023-05-07T04:08:43;19.27;;;9.73;;
71435;SDS011;59251;51.326;12.370;2023-05-07T04:11:09;19.03;;;10.57;;
71435;SDS011;59251;51.326;12.370;2023-05-07T04:13:34;21.43;;;11.00;;
71435;SDS011;59251;51.326;12.370;2023-05-07T04:16:01;19.73;;;10.93;;
71435;SDS011;59251;51.326;12.370;2023-05-07T04:18:27;19.45;;;10.23;;
71435;SDS011;59251;51.326;12.370;2023-05-07T04:20:53;19.77;;;10.68;;
71435;SDS011;59251;51.326;12.370;2023-05-07T04:23:18;18.53;;;10.17;;
71435;SDS011;59251;51.326;12.370;2023-05-07T04:25:44;19.77;;;9.50;;
71435;SDS011;59251;51.326;12.370;2023-05-07T04:28:10;21.05;;;10.55;;
71435;SDS011;59251;51.326;12.370;2023-05-07T04:30:36;19.75;;;9.20;;
71435;SDS011;59251;51.326;12.370;2023-05-07T04:33:01;17.97;;;9.70;;
71435;SDS011;59251;51.326;12.370;2023-05-07T04:35:27;20.23;;;10.27;;
71435;SDS011;59251;51.326;12.370;2023-05-07T04:37:52;18.93;;;9.77;;
71435;SDS011;59251;51.326;12.370;2023-05-07T04:40:17;18.30;;;9.93;;
71435;SDS011;59251;51.326;12.370;2023-05-07T04:42:43;18.02;;;9.95;;
71435;SDS011;59251;51.326;12.370;2023-05-07T04:45:08;19.47;;;10.20;;
71435;SDS011;59251;51.326;12.370;2023-05-07T04:47:35;18.45;;;10.07;;
71435;SDS011;59251;51.326;12.370;2023-05-07T04:50:00;19.87;;;10.27;;
71435;SDS011;59251;51.326;12.370;2023-05-07T04:52:26;20.43;;;9.80;;
71435;SDS011;59251;51.326;12.370;2023-05-07T04:54:51;19.40;;;10.70;;
71435;SDS011;59251;51.326;12.370;2023-05-07T04:57:17;19.73;;;9.68;;
71435;SDS011;59251;51.326;12.370;2023-05-07T04:59:43;19.25;;;10.82;;
71435;SDS011;59251;51.326;12.370;2023-05-07T05:02:10;22.27;;;11.10;;
71435;SDS011;59251;51.326;12.370;2023-05-07T05:04:36;18.73;;;9.90;;
71435;SDS011;59251;51.326;12.370;2023-05-07T05:07:02;19.42;;;9.73;;
71435;SDS011;59251;51.326;12.370;2023-05-07T05:09:31;17.73;;;9.55;;
71435;SDS011;59251;51.326;12.370;2023-05-07T05:11:56;19.50;;;9.27;;
71435;SDS011;59251;51.326;12.370;2023-05-07T05:14:21;17.60;;;8.73;;
71435;SDS011;59251;51.326;12.370;2023-05-07T05:16:47;16.80;;;8.77;;
71435;SDS011;59251;51.326;12.370;2023-05-07T05:19:12;19.30;;;9.15;;
71435;SDS011;59251;51.326;12.370;2023-05-07T05:21:37;17.67;;;8.80;;
71435;SDS011;59251;51.326;12.370;2023-05-07T05:24:03;17.07;;;8.67;;
71435;SDS011;59251;51.326;12.370;2023-05-07T05:26:28;15.13;;;7.83;;
71435;SDS011;59251;51.326;12.370;2023-05-07T05:28:54;18.10;;;9.90;;
71435;SDS011;59251;51.326;12.370;2023-05-07T05:31:19;18.50;;;7.57;;
71435;SDS011;59251;51.326;12.370;2023-05-07T05:33:44;16.53;;;8.27;;
71435;SDS011;59251;51.326;12.370;2023-05-07T05:36:10;15.13;;;7.40;;
71435;SDS011;59251;51.326;12.370;2023-05-07T05:38:36;16.83;;;8.20;;
71435;SDS011;59251;51.326;12.370;2023-05-07T05:41:02;17.67;;;7.18;;
71435;SDS011;59251;51.326;12.370;2023-05-07T05:43:28;13.07;;;6.87;;
71435;SDS011;59251;51.326;12.370;2023-05-07T05:45:53;14.00;;;7.23;;
71435;SDS011;59251;51.326;12.370;2023-05-07T05:48:20;14.45;;;7.63;;
71435;SDS011;59251;51.326;12.370;2023-05-07T05:50:45;14.27;;;7.33;;
71435;SDS011;59251;51.326;12.370;2023-05-07T05:53:10;13.67;;;7.13;;
71435;SDS011;59251;51.326;12.370;2023-05-07T05:55:36;14.98;;;6.65;;
71435;SDS011;59251;51.326;12.370;2023-05-07T05:58:01;13.98;;;6.78;;
71435;SDS011;59251;51.326;12.370;2023-05-07T06:00:27;13.70;;;6.13;;
71435;SDS011;59251;51.326;12.370;2023-05-07T06:02:52;12.77;;;6.80;;
71435;SDS011;59251;51.326;12.370;2023-05-07T06:05:18;13.55;;;6.97;;
71435;SDS011;59251;51.326;12.370;2023-05-07T06:07:43;14.90;;;7.63;;
71435;SDS011;59251;51.326;12.370;2023-05-07T06:10:09;13.67;;;7.13;;
71435;SDS011;59251;51.326;12.370;2023-05-07T06:12:34;14.87;;;7.13;;
71435;SDS011;59251;51.326;12.370;2023-05-07T06:14:59;14.87;;;7.50;;
71435;SDS011;59251;51.326;12.370;2023-05-07T06:17:25;15.52;;;7.55;;
71435;SDS011;59251;51.326;12.370;2023-05-07T06:19:50;18.05;;;7.70;;
71435;SDS011;59251;51.326;12.370;2023-05-07T06:22:16;14.53;;;7.53;;
71435;SDS011;59251;51.326;12.370;2023-05-07T06:24:41;17.03;;;7.53;;
71435;SDS011;59251;51.326;12.370;2023-05-07T06:27:06;16.33;;;7.83;;
71435;SDS011;59251;51.326;12.370;2023-05-07T06:29:32;17.80;;;8.07;;
71435;SDS011;59251;51.326;12.370;2023-05-07T06:32:07;14.95;;;7.88;;
71435;SDS011;59251;51.326;12.370;2023-05-07T06:34:33;14.57;;;7.20;;
71435;SDS011;59251;51.326;12.370;2023-05-07T06:36:58;14.80;;;7.97;;
71435;SDS011;59251;51.326;12.370;2023-05-07T06:39:23;17.93;;;9.00;;
71435;SDS011;59251;51.326;12.370;2023-05-07T06:41:49;15.90;;;8.50;;
71435;SDS011;59251;51.326;12.370;2023-05-07T06:44:14;16.52;;;8.10;;
71435;SDS011;59251;51.326;12.370;2023-05-07T06:46:40;14.43;;;7.55;;
71435;SDS011;59251;51.326;12.370;2023-05-07T06:49:06;14.95;;;7.47;;
71435;SDS011;59251;51.326;12.370;2023-05-07T06:51:31;14.63;;;7.80;;
71435;SDS011;59251;51.326;12.370;2023-05-07T06:53:57;16.20;;;8.50;;
71435;SDS011;59251;51.326;12.370;2023-05-07T06:56:22;13.77;;;7.13;;
71435;SDS011;59251;51.326;12.370;2023-05-07T06:58:48;14.80;;;7.28;;
71435;SDS011;59251;51.326;12.370;2023-05-07T07:01:13;12.87;;;7.13;;
71435;SDS011;59251;51.326;12.370;2023-05-07T07:03:39;15.80;;;7.90;;
71435;SDS011;59251;51.326;12.370;2023-05-07T07:06:04;14.45;;;7.38;;
71435;SDS011;59251;51.326;12.370;2023-05-07T07:08:30;14.73;;;6.93;;
71435;SDS011;59251;51.326;12.370;2023-05-07T07:10:55;13.23;;;6.73;;
71435;SDS011;59251;51.326;12.370;2023-05-07T07:13:21;13.33;;;6.37;;
71435;SDS011;59251;51.326;12.370;2023-05-07T07:15:46;13.20;;;6.57;;
71435;SDS011;59251;51.326;12.370;2023-05-07T07:18:11;13.15;;;6.57;;
71435;SDS011;59251;51.326;12.370;2023-05-07T07:20:37;13.67;;;6.50;;
71435;SDS011;59251;51.326;12.370;2023-05-07T07:23:02;12.50;;;6.43;;
71435;SDS011;59251;51.326;12.370;2023-05-07T07:25:28;11.67;;;6.27;;
71435;SDS011;59251;51.326;12.370;2023-05-07T07:27:53;10.87;;;5.90;;
71435;SDS011;59251;51.326;12.370;2023-05-07T07:30:18;10.80;;;5.87;;
71435;SDS011;59251;51.326;12.370;2023-05-07T07:32:44;10.80;;;5.73;;
71435;SDS011;59251;51.326;12.370;2023-05-07T07:35:09;12.80;;;6.20;;
71435;SDS011;59251;51.326;12.370;2023-05-07T07:37:35;12.43;;;5.63;;
71435;SDS011;59251;51.326;12.370;2023-05-07T07:40:00;10.93;;;5.80;;
71435;SDS011;59251;51.326;12.370;2023-05-07T07:42:26;9.90;;;5.20;;
71435;SDS011;59251;51.326;12.370;2023-05-07T07:44:51;12.25;;;5.65;;
71435;SDS011;59251;51.326;12.370;2023-05-07T07:47:17;10.50;;;5.50;;
71435;SDS011;59251;51.326;12.370;2023-05-07T07:49:42;10.77;;;5.13;;
71435;SDS011;59251;51.326;12.370;2023-05-07T07:52:08;10.85;;;5.85;;
71435;SDS011;59251;51.326;12.370;2023-05-07T07:54:33;10.00;;;5.73;;
71435;SDS011;59251;51.326;12.370;2023-05-07T07:56:58;11.57;;;5.43;;
71435;SDS011;59251;51.326;12.370;2023-05-07T07:59:24;10.10;;;5.43;;
71435;SDS011;59251;51.326;12.370;2023-05-07T08:01:50;12.02;;;6.07;;
71435;SDS011;59251;51.326;12.370;2023-05-07T08:04:17;11.27;;;5.25;;
71435;SDS011;59251;51.326;12.370;2023-05-07T08:06:42;10.13;;;5.30;;
71435;SDS011;59251;51.326;12.370;2023-05-07T08:09:08;11.30;;;5.43;;
71435;SDS011;59251;51.326;12.370;2023-05-07T08:11:33;9.30;;;4.60;;
71435;SDS011;59251;51.326;12.370;2023-05-07T08:13:59;10.38;;;5.50;;
71435;SDS011;59251;51.326;12.370;2023-05-07T08:16:24;10.67;;;5.37;;
71435;SDS011;59251;51.326;12.370;2023-05-07T08:18:50;10.07;;;4.80;;
71435;SDS011;59251;51.326;12.370;2023-05-07T08:21:15;12.43;;;5.30;;
71435;SDS011;59251;51.326;12.370;2023-05-07T08:23:40;10.90;;;5.35;;
71435;SDS011;59251;51.326;12.370;2023-05-07T08:26:07;9.83;;;4.53;;
71435;SDS011;59251;51.326;12.370;2023-05-07T08:28:33;9.27;;;4.45;;
71435;SDS011;59251;51.326;12.370;2023-05-07T08:30:58;9.73;;;4.33;;
71435;SDS011;59251;51.326;12.370;2023-05-07T08:33:26;7.93;;;4.18;;
71435;SDS011;59251;51.326;12.370;2023-05-07T08:35:51;8.60;;;4.05;;
71435;SDS011;59251;51.326;12.370;2023-05-07T08:38:17;8.63;;;4.30;;
71435;SDS011;59251;51.326;12.370;2023-05-07T08:40:42;8.73;;;4.07;;
71435;SDS011;59251;51.326;12.370;2023-05-07T08:43:07;8.88;;;4.00;;
71435;SDS011;59251;51.326;12.370;2023-05-07T08:45:34;10.75;;;4.22;;
71435;SDS011;59251;51.326;12.370;2023-05-07T08:48:00;10.50;;;4.40;;
71435;SDS011;59251;51.326;12.370;2023-05-07T08:50:28;8.93;;;4.72;;
71435;SDS011;59251;51.326;12.370;2023-05-07T08:52:54;9.98;;;4.40;;
71435;SDS011;59251;51.326;12.370;2023-05-07T08:55:21;8.10;;;4.13;;
71435;SDS011;59251;51.326;12.370;2023-05-07T08:57:47;8.82;;;4.18;;
71435;SDS011;59251;51.326;12.370;2023-05-07T09:00:13;8.67;;;4.30;;
71435;SDS011;59251;51.326;12.370;2023-05-07T09:02:39;10.13;;;4.07;;
71435;SDS011;59251;51.326;12.370;2023-05-07T09:05:05;8.73;;;4.10;;
71435;SDS011;59251;51.326;12.370;2023-05-07T09:07:31;9.67;;;4.67;;
71435;SDS011;59251;51.326;12.370;2023-05-07T09:09:56;9.25;;;4.10;;
71435;SDS011;59251;51.326;12.370;2023-05-07T09:12:24;9.27;;;3.73;;
71435;SDS011;59251;51.326;12.370;2023-05-07T09:14:50;10.23;;;4.32;;
71435;SDS011;59251;51.326;12.370;2023-05-07T09:17:16;8.57;;;4.10;;
71435;SDS011;59251;51.326;12.370;2023-05-07T09:19:43;9.10;;;4.30;;
71435;SDS011;59251;51.326;12.370;2023-05-07T09:22:10;10.60;;;4.40;;
71435;SDS011;59251;51.326;12.370;2023-05-07T09:24:35;8.85;;;4.32;;
71435;SDS011;59251;51.326;12.370;2023-05-07T09:27:03;8.67;;;4.23;;
71435;SDS011;59251;51.326;12.370;2023-05-07T09:29:29;8.85;;;4.00;;
71435;SDS011;59251;51.326;12.370;2023-05-07T09:32:00;7.97;;;4.28;;
71435;SDS011;59251;51.326;12.370;2023-05-07T09:34:28;8.43;;;4.22;;
71435;SDS011;59251;51.326;12.370;2023-05-07T09:36:54;16.20;;;4.72;;
71435;SDS011;59251;51.326;12.370;2023-05-07T09:39:21;9.70;;;4.70;;
71435;SDS011;59251;51.326;12.370;2023-05-07T09:41:48;9.93;;;4.68;;
71435;SDS011;59251;51.326;12.370;2023-05-07T09:44:19;9.40;;;4.07;;
71435;SDS011;59251;51.326;12.370;2023-05-07T09:46:45;9.82;;;4.68;;
71435;SDS011;59251;51.326;12.370;2023-05-07T09:49:15;8.52;;;4.60;;
71435;SDS011;59251;51.326;12.370;2023-05-07T09:51:49;9.77;;;4.10;;
71435;SDS011;59251;51.326;12.370;2023-05-07T09:54:16;9.13;;;4.47;;
71435;SDS011;59251;51.326;12.370;2023-05-07T09:56:45;8.55;;;4.43;;
71435;SDS011;59251;51.326;12.370;2023-05-07T09:59:13;9.50;;;4.20;;
71435;SDS011;59251;51.326;12.370;2023-05-07T10:01:41;8.57;;;4.25;;
71435;SDS011;59251;51.326;12.370;2023-05-07T10:04:08;10.03;;;4.60;;
71435;SDS011;59251;51.326;12.370;2023-05-07T10:06:34;9.38;;;4.47;;
71435;SDS011;59251;51.326;12.370;2023-05-07T10:09:00;10.90;;;5.20;;
71435;SDS011;59251;51.326;12.370;2023-05-07T10:11:27;8.68;;;4.25;;
71435;SDS011;59251;51.326;12.370;2023-05-07T10:13:53;9.68;;;4.55;;
71435;SDS011;59251;51.326;12.370;2023-05-07T10:16:18;9.65;;;4.63;;
71435;SDS011;59251;51.326;12.370;2023-05-07T10:18:45;7.95;;;3.70;;
71435;SDS011;59251;51.326;12.370;2023-05-07T10:21:16;8.70;;;3.90;;
71435;SDS011;59251;51.326;12.370;2023-05-07T10:23:55;7.93;;;3.80;;
71435;SDS011;59251;51.326;12.370;2023-05-07T10:26:22;8.52;;;3.83;;
71435;SDS011;59251;51.326;12.370;2023-05-07T10:28:51;9.73;;;4.70;;
71435;SDS011;59251;51.326;12.370;2023-05-07T10:34:09;9.02;;;3.58;;
71435;SDS011;59251;51.326;12.370;2023-05-07T10:36:37;7.57;;;3.45;;
71435;SDS011;59251;51.326;12.370;2023-05-07T10:39:04;8.13;;;3.83;;
71435;SDS011;59251;51.326;12.370;2023-05-07T10:41:31;7.85;;;3.63;;
71435;SDS011;59251;51.326;12.370;2023-05-07T10:43:56;8.90;;;3.87;;
71435;SDS011;59251;51.326;12.370;2023-05-07T10:46:22;8.15;;;3.25;;
71435;SDS011;59251;51.326;12.370;2023-05-07T10:51:25;9.30;;;3.78;;
71435;SDS011;59251;51.326;12.370;2023-05-07T10:56:38;6.60;;;2.88;;
71435;SDS011;59251;51.326;12.370;2023-05-07T11:02:04;8.88;;;3.75;;
71435;SDS011;59251;51.326;12.370;2023-05-07T11:04:32;8.40;;;3.83;;
71435;SDS011;59251;51.326;12.370;2023-05-07T11:15:05;10.18;;;4.93;;
71435;SDS011;59251;51.326;12.370;2023-05-07T11:17:34;8.88;;;4.97;;
71435;SDS011;59251;51.326;12.370;2023-05-07T11:20:16;9.50;;;4.20;;
71435;SDS011;59251;51.326;12.370;2023-05-07T11:22:42;9.32;;;4.43;;
71435;SDS011;59251;51.326;12.370;2023-05-07T11:25:07;9.70;;;3.90;;
71435;SDS011;59251;51.326;12.370;2023-05-07T11:27:33;8.07;;;3.83;;
71435;SDS011;59251;51.326;12.370;2023-05-07T11:29:59;8.57;;;4.15;;
71435;SDS011;59251;51.326;12.370;2023-05-07T11:32:26;7.93;;;3.50;;
71435;SDS011;59251;51.326;12.370;2023-05-07T11:34:54;8.18;;;3.42;;
71435;SDS011;59251;51.326;12.370;2023-05-07T11:37:20;7.95;;;4.28;;
71435;SDS011;59251;51.326;12.370;2023-05-07T11:39:46;8.07;;;3.83;;
71435;SDS011;59251;51.326;12.370;2023-05-07T11:42:25;9.57;;;4.40;;
71435;SDS011;59251;51.326;12.370;2023-05-07T11:44:52;8.57;;;3.90;;
71435;SDS011;59251;51.326;12.370;2023-05-07T11:47:18;9.20;;;4.50;;
71435;SDS011;59251;51.326;12.370;2023-05-07T11:49:45;9.17;;;3.63;;
71435;SDS011;59251;51.326;12.370;2023-05-07T11:52:15;8.38;;;4.22;;
71435;SDS011;59251;51.326;12.370;2023-05-07T11:54:44;9.10;;;4.10;;
71435;SDS011;59251;51.326;12.370;2023-05-07T11:57:21;9.63;;;4.63;;
71435;SDS011;59251;51.326;12.370;2023-05-07T11:59:47;9.23;;;4.53;;
71435;SDS011;59251;51.326;12.370;2023-05-07T12:02:13;11.13;;;4.70;;
71435;SDS011;59251;51.326;12.370;2023-05-07T12:04:40;10.75;;;4.75;;
71435;SDS011;59251;51.326;12.370;2023-05-07T12:07:06;9.13;;;4.63;;
71435;SDS011;59251;51.326;12.370;2023-05-07T12:09:37;10.30;;;5.13;;
71435;SDS011;59251;51.326;12.370;2023-05-07T12:12:03;9.73;;;4.63;;
71435;SDS011;59251;51.326;12.370;2023-05-07T12:14:29;9.57;;;4.60;;
71435;SDS011;59251;51.326;12.370;2023-05-07T12:16:55;9.07;;;4.47;;
71435;SDS011;59251;51.326;12.370;2023-05-07T12:19:20;10.27;;;4.90;;
71435;SDS011;59251;51.326;12.370;2023-05-07T12:21:46;9.98;;;4.72;;
71435;SDS011;59251;51.326;12.370;2023-05-07T12:24:13;9.43;;;4.63;;
71435;SDS011;59251;51.326;12.370;2023-05-07T12:26:39;10.02;;;4.35;;
71435;SDS011;59251;51.326;12.370;2023-05-07T12:29:06;8.30;;;4.40;;
71435;SDS011;59251;51.326;12.370;2023-05-07T12:31:31;8.98;;;4.03;;
71435;SDS011;59251;51.326;12.370;2023-05-07T12:33:57;10.15;;;3.90;;
71435;SDS011;59251;51.326;12.370;2023-05-07T12:36:22;8.02;;;3.75;;
71435;SDS011;59251;51.326;12.370;2023-05-07T12:38:49;9.17;;;3.30;;
71435;SDS011;59251;51.326;12.370;2023-05-07T12:41:14;9.30;;;4.22;;
71435;SDS011;59251;51.326;12.370;2023-05-07T12:43:41;9.25;;;4.68;;
71435;SDS011;59251;51.326;12.370;2023-05-07T12:46:09;9.48;;;4.72;;
71435;SDS011;59251;51.326;12.370;2023-05-07T12:48:37;9.65;;;4.93;;
71435;SDS011;59251;51.326;12.370;2023-05-07T12:51:03;8.53;;;4.00;;
71435;SDS011;59251;51.326;12.370;2023-05-07T12:53:31;9.73;;;4.63;;
71435;SDS011;59251;51.326;12.370;2023-05-07T12:55:57;9.70;;;4.60;;
71435;SDS011;59251;51.326;12.370;2023-05-07T12:58:30;9.23;;;4.03;;
71435;SDS011;59251;51.326;12.370;2023-05-07T13:00:59;7.47;;;3.75;;
71435;SDS011;59251;51.326;12.370;2023-05-07T13:03:27;8.48;;;3.47;;
71435;SDS011;59251;51.326;12.370;2023-05-07T13:05:54;9.05;;;3.85;;
71435;SDS011;59251;51.326;12.370;2023-05-07T13:10:57;7.50;;;3.92;;
71435;SDS011;59251;51.326;12.370;2023-05-07T13:13:24;9.43;;;3.95;;
71435;SDS011;59251;51.326;12.370;2023-05-07T13:15:50;7.50;;;3.50;;
71435;SDS011;59251;51.326;12.370;2023-05-07T13:18:15;9.07;;;4.35;;
71435;SDS011;59251;51.326;12.370;2023-05-07T13:20:41;8.10;;;3.90;;
71435;SDS011;59251;51.326;12.370;2023-05-07T13:23:06;8.03;;;3.70;;
71435;SDS011;59251;51.326;12.370;2023-05-07T13:25:32;7.45;;;3.55;;
71435;SDS011;59251;51.326;12.370;2023-05-07T13:27:57;8.33;;;3.83;;
71435;SDS011;59251;51.326;12.370;2023-05-07T13:30:22;8.50;;;4.07;;
71435;SDS011;59251;51.326;12.370;2023-05-07T13:32:48;8.97;;;4.23;;
71435;SDS011;59251;51.326;12.370;2023-05-07T13:35:14;8.23;;;3.72;;
71435;SDS011;59251;51.326;12.370;2023-05-07T13:37:40;8.25;;;3.65;;
71435;SDS011;59251;51.326;12.370;2023-05-07T13:40:05;7.13;;;3.63;;
71435;SDS011;59251;51.326;12.370;2023-05-07T13:42:31;7.63;;;3.50;;
71435;SDS011;59251;51.326;12.370;2023-05-07T13:44:56;7.03;;;3.10;;
71435;SDS011;59251;51.326;12.370;2023-05-07T13:47:22;7.30;;;3.22;;
71435;SDS011;59251;51.326;12.370;2023-05-07T13:49:47;8.50;;;3.57;;
71435;SDS011;59251;51.326;12.370;2023-05-07T13:52:15;8.02;;;3.33;;
71435;SDS011;59251;51.326;12.370;2023-05-07T13:54:41;8.13;;;3.50;;
71435;SDS011;59251;51.326;12.370;2023-05-07T13:57:06;12.87;;;3.33;;
71435;SDS011;59251;51.326;12.370;2023-05-07T13:59:32;7.10;;;3.00;;
71435;SDS011;59251;51.326;12.370;2023-05-07T14:01:57;6.97;;;2.73;;
71435;SDS011;59251;51.326;12.370;2023-05-07T14:04:23;7.13;;;3.20;;
71435;SDS011;59251;51.326;12.370;2023-05-07T14:06:48;8.10;;;2.83;;
71435;SDS011;59251;51.326;12.370;2023-05-07T14:09:14;7.00;;;2.60;;
71435;SDS011;59251;51.326;12.370;2023-05-07T14:11:39;6.73;;;2.63;;
71435;SDS011;59251;51.326;12.370;2023-05-07T14:14:05;6.60;;;2.70;;
71435;SDS011;59251;51.326;12.370;2023-05-07T14:16:30;6.72;;;2.30;;
71435;SDS011;59251;51.326;12.370;2023-05-07T14:18:55;6.73;;;2.57;;
71435;SDS011;59251;51.326;12.370;2023-05-07T14:21:21;5.63;;;2.40;;
71435;SDS011;59251;51.326;12.370;2023-05-07T14:23:46;6.20;;;2.50;;
71435;SDS011;59251;51.326;12.370;2023-05-07T14:26:12;6.38;;;2.58;;
71435;SDS011;59251;51.326;12.370;2023-05-07T14:28:37;6.10;;;2.20;;
71435;SDS011;59251;51.326;12.370;2023-05-07T14:31:04;6.50;;;2.75;;
71435;SDS011;59251;51.326;12.370;2023-05-07T14:33:31;6.95;;;2.95;;
71435;SDS011;59251;51.326;12.370;2023-05-07T14:35:57;6.33;;;2.30;;
71435;SDS011;59251;51.326;12.370;2023-05-07T14:38:22;6.25;;;2.40;;